sensor_id;sensor_type;location;lat;lon;timestamp;P1;durP1;ratioP1;P2;durP2;ratioP2
23449;SDS011;11897;45.438;12.128;2023-03-23T00:01:58;13.37;;;8.20;;
23449;SDS011;11897;45.438;12.128;2023-03-23T00:04:26;16.60;;;8.23;;
23449;SDS011;11897;45.438;12.128;2023-03-23T00:06:55;15.43;;;8.87;;
23449;SDS011;11897;45.438;12.128;2023-03-23T00:09:22;18.77;;;8.93;;
23449;SDS011;11897;45.438;12.128;2023-03-23T00:11:50;12.43;;;7.47;;
23449;SDS011;11897;45.438;12.128;2023-03-23T00:14:17;15.20;;;7.97;;
23449;SDS011;11897;45.438;12.128;2023-03-23T00:16:47;13.33;;;7.80;;
23449;SDS011;11897;45.438;12.128;2023-03-23T00:19:15;14.03;;;8.23;;
23449;SDS011;11897;45.438;12.128;2023-03-23T00:21:43;14.97;;;8.00;;
23449;SDS011;11897;45.438;12.128;2023-03-23T00:24:10;14.77;;;7.37;;
23449;SDS011;11897;45.438;12.128;2023-03-23T00:26:38;16.00;;;8.70;;
23449;SDS011;11897;45.438;12.128;2023-03-23T00:29:06;15.03;;;7.97;;
23449;SDS011;11897;45.438;12.128;2023-03-23T00:31:33;15.17;;;7.37;;
23449;SDS011;11897;45.438;12.128;2023-03-23T00:34:02;18.87;;;9.30;;
23449;SDS011;11897;45.438;12.128;2023-03-23T00:36:29;14.00;;;7.43;;
23449;SDS011;11897;45.438;12.128;2023-03-23T00:38:58;15.30;;;7.87;;
23449;SDS011;11897;45.438;12.128;2023-03-23T00:41:27;13.60;;;8.30;;
23449;SDS011;11897;45.438;12.128;2023-03-23T00:43:54;13.33;;;7.17;;
23449;SDS011;11897;45.438;12.128;2023-03-23T00:46:21;12.00;;;7.07;;
23449;SDS011;11897;45.438;12.128;2023-03-23T00:48:48;13.63;;;7.63;;
23449;SDS011;11897;45.438;12.128;2023-03-23T00:51:16;14.23;;;7.30;;
23449;SDS011;11897;45.438;12.128;2023-03-23T00:53:42;12.07;;;7.47;;
23449;SDS011;11897;45.438;12.128;2023-03-23T00:56:11;12.17;;;6.73;;
23449;SDS011;11897;45.438;12.128;2023-03-23T00:58:38;11.30;;;6.40;;
23449;SDS011;11897;45.438;12.128;2023-03-23T01:01:05;12.70;;;7.37;;
23449;SDS011;11897;45.438;12.128;2023-03-23T01:03:32;10.73;;;6.37;;
23449;SDS011;11897;45.438;12.128;2023-03-23T01:06:03;12.00;;;6.27;;
23449;SDS011;11897;45.438;12.128;2023-03-23T01:08:33;10.60;;;5.77;;
23449;SDS011;11897;45.438;12.128;2023-03-23T01:11:03;11.87;;;6.80;;
23449;SDS011;11897;45.438;12.128;2023-03-23T01:13:33;14.53;;;6.73;;
23449;SDS011;11897;45.438;12.128;2023-03-23T01:16:02;11.03;;;7.00;;
23449;SDS011;11897;45.438;12.128;2023-03-23T01:18:32;11.70;;;6.90;;
23449;SDS011;11897;45.438;12.128;2023-03-23T01:21:03;10.10;;;6.40;;
23449;SDS011;11897;45.438;12.128;2023-03-23T01:23:34;10.37;;;6.83;;
23449;SDS011;11897;45.438;12.128;2023-03-23T01:26:04;14.37;;;6.40;;
23449;SDS011;11897;45.438;12.128;2023-03-23T01:28:34;11.63;;;6.17;;
23449;SDS011;11897;45.438;12.128;2023-03-23T01:31:01;14.80;;;6.60;;
23449;SDS011;11897;45.438;12.128;2023-03-23T01:33:29;10.80;;;5.93;;
23449;SDS011;11897;45.438;12.128;2023-03-23T01:35:56;8.20;;;5.53;;
23449;SDS011;11897;45.438;12.128;2023-03-23T01:38:23;11.03;;;6.00;;
23449;SDS011;11897;45.438;12.128;2023-03-23T01:40:51;12.63;;;6.33;;
23449;SDS011;11897;45.438;12.128;2023-03-23T01:43:17;9.97;;;6.27;;
23449;SDS011;11897;45.438;12.128;2023-03-23T01:45:46;13.00;;;6.53;;
23449;SDS011;11897;45.438;12.128;2023-03-23T01:48:14;10.47;;;6.53;;
23449;SDS011;11897;45.438;12.128;2023-03-23T01:50:43;14.43;;;6.10;;
23449;SDS011;11897;45.438;12.128;2023-03-23T01:53:12;14.53;;;6.90;;
23449;SDS011;11897;45.438;12.128;2023-03-23T01:55:39;11.53;;;5.97;;
23449;SDS011;11897;45.438;12.128;2023-03-23T01:58:07;12.23;;;7.10;;
23449;SDS011;11897;45.438;12.128;2023-03-23T02:00:37;12.87;;;6.97;;
23449;SDS011;11897;45.438;12.128;2023-03-23T02:03:07;11.77;;;5.93;;
23449;SDS011;11897;45.438;12.128;2023-03-23T02:05:38;11.17;;;6.37;;
23449;SDS011;11897;45.438;12.128;2023-03-23T02:08:26;10.07;;;6.10;;
23449;SDS011;11897;45.438;12.128;2023-03-23T02:10:54;12.20;;;6.87;;
23449;SDS011;11897;45.438;12.128;2023-03-23T02:13:21;10.13;;;5.70;;
23449;SDS011;11897;45.438;12.128;2023-03-23T02:15:51;10.63;;;6.27;;
23449;SDS011;11897;45.438;12.128;2023-03-23T02:18:26;9.53;;;5.30;;
23449;SDS011;11897;45.438;12.128;2023-03-23T02:29:22;12.67;;;6.10;;
23449;SDS011;11897;45.438;12.128;2023-03-23T02:32:01;10.67;;;6.40;;
23449;SDS011;11897;45.438;12.128;2023-03-23T02:34:34;14.83;;;5.73;;
23449;SDS011;11897;45.438;12.128;2023-03-23T02:37:05;8.97;;;5.40;;
23449;SDS011;11897;45.438;12.128;2023-03-23T02:39:37;11.50;;;6.10;;
23449;SDS011;11897;45.438;12.128;2023-03-23T02:42:05;8.83;;;5.40;;
23449;SDS011;11897;45.438;12.128;2023-03-23T02:44:32;9.03;;;5.80;;
23449;SDS011;11897;45.438;12.128;2023-03-23T02:47:00;12.07;;;6.20;;
23449;SDS011;11897;45.438;12.128;2023-03-23T02:49:29;10.50;;;6.20;;
23449;SDS011;11897;45.438;12.128;2023-03-23T02:52:00;15.87;;;4.77;;
23449;SDS011;11897;45.438;12.128;2023-03-23T02:54:29;9.30;;;5.27;;
23449;SDS011;11897;45.438;12.128;2023-03-23T02:56:56;14.30;;;5.17;;
23449;SDS011;11897;45.438;12.128;2023-03-23T02:59:27;10.20;;;5.77;;
23449;SDS011;11897;45.438;12.128;2023-03-23T03:01:56;8.27;;;4.53;;
23449;SDS011;11897;45.438;12.128;2023-03-23T03:04:25;12.67;;;5.67;;
23449;SDS011;11897;45.438;12.128;2023-03-23T03:06:56;13.10;;;4.50;;
23449;SDS011;11897;45.438;12.128;2023-03-23T03:09:27;8.40;;;5.33;;
23449;SDS011;11897;45.438;12.128;2023-03-23T03:12:01;7.90;;;4.20;;
23449;SDS011;11897;45.438;12.128;2023-03-23T03:14:31;7.53;;;4.73;;
23449;SDS011;11897;45.438;12.128;2023-03-23T03:17:00;6.20;;;4.07;;
23449;SDS011;11897;45.438;12.128;2023-03-23T03:19:29;6.53;;;4.50;;
23449;SDS011;11897;45.438;12.128;2023-03-23T03:21:57;9.00;;;5.70;;
23449;SDS011;11897;45.438;12.128;2023-03-23T03:24:38;11.13;;;5.73;;
23449;SDS011;11897;45.438;12.128;2023-03-23T03:27:10;10.70;;;5.70;;
23449;SDS011;11897;45.438;12.128;2023-03-23T03:29:44;7.73;;;4.77;;
23449;SDS011;11897;45.438;12.128;2023-03-23T03:32:16;8.13;;;5.20;;
23449;SDS011;11897;45.438;12.128;2023-03-23T03:34:50;10.77;;;6.20;;
23449;SDS011;11897;45.438;12.128;2023-03-23T03:37:18;11.77;;;5.10;;
23449;SDS011;11897;45.438;12.128;2023-03-23T03:39:48;8.83;;;5.63;;
23449;SDS011;11897;45.438;12.128;2023-03-23T03:42:16;10.47;;;5.93;;
23449;SDS011;11897;45.438;12.128;2023-03-23T03:44:43;11.50;;;6.23;;
23449;SDS011;11897;45.438;12.128;2023-03-23T03:47:09;10.17;;;5.83;;
23449;SDS011;11897;45.438;12.128;2023-03-23T03:49:37;13.13;;;5.93;;
23449;SDS011;11897;45.438;12.128;2023-03-23T03:52:03;10.07;;;5.97;;
23449;SDS011;11897;45.438;12.128;2023-03-23T03:54:38;13.50;;;6.40;;
23449;SDS011;11897;45.438;12.128;2023-03-23T03:57:10;11.17;;;5.97;;
23449;SDS011;11897;45.438;12.128;2023-03-23T03:59:43;14.00;;;5.80;;
23449;SDS011;11897;45.438;12.128;2023-03-23T04:02:31;12.73;;;5.60;;
23449;SDS011;11897;45.438;12.128;2023-03-23T04:04:58;10.70;;;5.70;;
23449;SDS011;11897;45.438;12.128;2023-03-23T04:07:31;10.37;;;5.60;;
23449;SDS011;11897;45.438;12.128;2023-03-23T04:09:58;10.03;;;5.93;;
23449;SDS011;11897;45.438;12.128;2023-03-23T04:12:26;9.83;;;5.73;;
23449;SDS011;11897;45.438;12.128;2023-03-23T04:14:56;10.73;;;6.00;;
23449;SDS011;11897;45.438;12.128;2023-03-23T04:17:29;11.03;;;6.00;;
23449;SDS011;11897;45.438;12.128;2023-03-23T04:19:56;14.63;;;6.13;;
23449;SDS011;11897;45.438;12.128;2023-03-23T04:22:25;12.23;;;6.80;;
23449;SDS011;11897;45.438;12.128;2023-03-23T04:24:57;11.17;;;6.20;;
23449;SDS011;11897;45.438;12.128;2023-03-23T04:27:31;11.53;;;6.67;;
23449;SDS011;11897;45.438;12.128;2023-03-23T04:30:01;11.57;;;5.70;;
23449;SDS011;11897;45.438;12.128;2023-03-23T04:32:49;10.77;;;5.67;;
23449;SDS011;11897;45.438;12.128;2023-03-23T04:35:21;9.43;;;5.20;;
23449;SDS011;11897;45.438;12.128;2023-03-23T04:37:58;8.77;;;4.93;;
23449;SDS011;11897;45.438;12.128;2023-03-23T04:40:25;6.57;;;4.07;;
23449;SDS011;11897;45.438;12.128;2023-03-23T04:43:11;8.07;;;4.93;;
23449;SDS011;11897;45.438;12.128;2023-03-23T04:45:55;5.63;;;3.37;;
23449;SDS011;11897;45.438;12.128;2023-03-23T04:48:24;7.23;;;4.90;;
23449;SDS011;11897;45.438;12.128;2023-03-23T04:51:08;7.80;;;4.77;;
23449;SDS011;11897;45.438;12.128;2023-03-23T04:53:36;8.63;;;5.17;;
23449;SDS011;11897;45.438;12.128;2023-03-23T04:56:04;7.90;;;5.07;;
23449;SDS011;11897;45.438;12.128;2023-03-23T04:58:38;8.30;;;5.17;;
23449;SDS011;11897;45.438;12.128;2023-03-23T05:01:09;9.07;;;5.93;;
23449;SDS011;11897;45.438;12.128;2023-03-23T05:03:46;9.33;;;4.97;;
23449;SDS011;11897;45.438;12.128;2023-03-23T05:06:13;11.03;;;5.63;;
23449;SDS011;11897;45.438;12.128;2023-03-23T05:08:41;11.50;;;6.43;;
23449;SDS011;11897;45.438;12.128;2023-03-23T05:11:09;11.27;;;5.37;;
23449;SDS011;11897;45.438;12.128;2023-03-23T05:13:40;12.77;;;5.47;;
23449;SDS011;11897;45.438;12.128;2023-03-23T05:16:10;14.07;;;6.83;;
23449;SDS011;11897;45.438;12.128;2023-03-23T05:18:39;9.70;;;5.67;;
23449;SDS011;11897;45.438;12.128;2023-03-23T05:21:09;11.10;;;6.10;;
23449;SDS011;11897;45.438;12.128;2023-03-23T05:23:40;12.30;;;6.37;;
23449;SDS011;11897;45.438;12.128;2023-03-23T05:26:15;11.60;;;6.10;;
23449;SDS011;11897;45.438;12.128;2023-03-23T05:28:43;9.20;;;5.10;;
23449;SDS011;11897;45.438;12.128;2023-03-23T05:31:19;13.17;;;6.63;;
23449;SDS011;11897;45.438;12.128;2023-03-23T05:33:46;13.10;;;6.00;;
23449;SDS011;11897;45.438;12.128;2023-03-23T05:36:24;12.33;;;6.93;;
23449;SDS011;11897;45.438;12.128;2023-03-23T05:39:29;10.33;;;5.97;;
23449;SDS011;11897;45.438;12.128;2023-03-23T05:42:10;12.67;;;6.80;;
23449;SDS011;11897;45.438;12.128;2023-03-23T05:45:00;13.23;;;6.67;;
23449;SDS011;11897;45.438;12.128;2023-03-23T05:47:27;16.23;;;6.77;;
23449;SDS011;11897;45.438;12.128;2023-03-23T05:50:00;11.60;;;5.80;;
23449;SDS011;11897;45.438;12.128;2023-03-23T05:52:29;14.73;;;7.73;;
23449;SDS011;11897;45.438;12.128;2023-03-23T05:54:59;16.03;;;6.83;;
23449;SDS011;11897;45.438;12.128;2023-03-23T05:57:27;13.57;;;7.27;;
23449;SDS011;11897;45.438;12.128;2023-03-23T06:00:03;14.87;;;6.83;;
23449;SDS011;11897;45.438;12.128;2023-03-23T06:02:40;15.27;;;6.97;;
23449;SDS011;11897;45.438;12.128;2023-03-23T06:05:12;13.37;;;7.50;;
23449;SDS011;11897;45.438;12.128;2023-03-23T06:07:44;15.13;;;7.40;;
23449;SDS011;11897;45.438;12.128;2023-03-23T06:10:11;12.00;;;7.10;;
23449;SDS011;11897;45.438;12.128;2023-03-23T06:12:40;15.50;;;7.70;;
23449;SDS011;11897;45.438;12.128;2023-03-23T06:15:18;19.90;;;8.60;;
23449;SDS011;11897;45.438;12.128;2023-03-23T06:18:11;12.43;;;7.63;;
23449;SDS011;11897;45.438;12.128;2023-03-23T06:21:02;12.27;;;6.93;;
23449;SDS011;11897;45.438;12.128;2023-03-23T06:23:44;17.00;;;7.10;;
23449;SDS011;11897;45.438;12.128;2023-03-23T06:26:13;13.93;;;7.50;;
23449;SDS011;11897;45.438;12.128;2023-03-23T06:28:43;18.77;;;8.90;;
23449;SDS011;11897;45.438;12.128;2023-03-23T06:31:11;16.33;;;8.50;;
23449;SDS011;11897;45.438;12.128;2023-03-23T06:33:40;13.00;;;8.03;;
23449;SDS011;11897;45.438;12.128;2023-03-23T06:36:27;15.90;;;8.33;;
23449;SDS011;11897;45.438;12.128;2023-03-23T06:39:14;14.77;;;8.00;;
23449;SDS011;11897;45.438;12.128;2023-03-23T06:42:01;13.77;;;7.10;;
23449;SDS011;11897;45.438;12.128;2023-03-23T06:44:32;15.50;;;8.53;;
23449;SDS011;11897;45.438;12.128;2023-03-23T06:47:01;16.80;;;8.67;;
23449;SDS011;11897;45.438;12.128;2023-03-23T06:49:33;17.63;;;9.00;;
23449;SDS011;11897;45.438;12.128;2023-03-23T06:52:21;11.20;;;7.37;;
23449;SDS011;11897;45.438;12.128;2023-03-23T06:54:49;18.70;;;8.60;;
23449;SDS011;11897;45.438;12.128;2023-03-23T06:57:17;17.50;;;8.43;;
23449;SDS011;11897;45.438;12.128;2023-03-23T06:59:45;14.90;;;8.13;;
23449;SDS011;11897;45.438;12.128;2023-03-23T07:02:14;17.40;;;9.13;;
23449;SDS011;11897;45.438;12.128;2023-03-23T07:04:44;18.63;;;9.37;;
23449;SDS011;11897;45.438;12.128;2023-03-23T07:07:25;16.73;;;8.53;;
23449;SDS011;11897;45.438;12.128;2023-03-23T07:10:12;15.90;;;9.27;;
23449;SDS011;11897;45.438;12.128;2023-03-23T07:12:40;16.40;;;9.23;;
23449;SDS011;11897;45.438;12.128;2023-03-23T07:15:08;16.53;;;10.33;;
23449;SDS011;11897;45.438;12.128;2023-03-23T07:17:39;15.77;;;9.47;;
23449;SDS011;11897;45.438;12.128;2023-03-23T07:20:15;15.40;;;8.60;;
23449;SDS011;11897;45.438;12.128;2023-03-23T07:22:42;20.03;;;9.73;;
23449;SDS011;11897;45.438;12.128;2023-03-23T07:25:20;18.90;;;9.07;;
23449;SDS011;11897;45.438;12.128;2023-03-23T07:27:50;23.07;;;9.57;;
23449;SDS011;11897;45.438;12.128;2023-03-23T07:30:17;18.40;;;9.73;;
23449;SDS011;11897;45.438;12.128;2023-03-23T07:32:46;20.73;;;11.27;;
23449;SDS011;11897;45.438;12.128;2023-03-23T07:35:13;17.23;;;10.13;;
23449;SDS011;11897;45.438;12.128;2023-03-23T07:37:48;23.93;;;10.67;;
23449;SDS011;11897;45.438;12.128;2023-03-23T07:40:16;15.83;;;9.40;;
23449;SDS011;11897;45.438;12.128;2023-03-23T07:42:51;19.83;;;10.67;;
23449;SDS011;11897;45.438;12.128;2023-03-23T07:45:27;19.93;;;10.43;;
23449;SDS011;11897;45.438;12.128;2023-03-23T07:47:57;18.33;;;10.63;;
23449;SDS011;11897;45.438;12.128;2023-03-23T07:50:24;15.70;;;10.07;;
23449;SDS011;11897;45.438;12.128;2023-03-23T07:52:53;18.30;;;10.93;;
23449;SDS011;11897;45.438;12.128;2023-03-23T07:55:21;18.77;;;10.67;;
23449;SDS011;11897;45.438;12.128;2023-03-23T07:58:19;22.27;;;10.27;;
23449;SDS011;11897;45.438;12.128;2023-03-23T08:00:49;20.83;;;10.53;;
23449;SDS011;11897;45.438;12.128;2023-03-23T08:03:19;20.23;;;9.73;;
23449;SDS011;11897;45.438;12.128;2023-03-23T08:06:07;24.73;;;10.53;;
23449;SDS011;11897;45.438;12.128;2023-03-23T08:08:53;17.60;;;9.63;;
23449;SDS011;11897;45.438;12.128;2023-03-23T08:11:38;17.13;;;9.73;;
23449;SDS011;11897;45.438;12.128;2023-03-23T08:14:43;18.00;;;10.10;;
23449;SDS011;11897;45.438;12.128;2023-03-23T08:17:43;15.03;;;9.57;;
23449;SDS011;11897;45.438;12.128;2023-03-23T08:20:29;19.30;;;10.27;;
23449;SDS011;11897;45.438;12.128;2023-03-23T08:22:59;18.40;;;9.27;;
23449;SDS011;11897;45.438;12.128;2023-03-23T08:25:46;13.87;;;8.47;;
23449;SDS011;11897;45.438;12.128;2023-03-23T08:28:19;16.57;;;9.67;;
23449;SDS011;11897;45.438;12.128;2023-03-23T08:31:13;16.97;;;9.80;;
23449;SDS011;11897;45.438;12.128;2023-03-23T08:33:58;18.37;;;9.93;;
23449;SDS011;11897;45.438;12.128;2023-03-23T08:36:52;15.07;;;9.30;;
23449;SDS011;11897;45.438;12.128;2023-03-23T08:39:46;15.70;;;9.57;;
23449;SDS011;11897;45.438;12.128;2023-03-23T08:42:51;13.57;;;9.40;;
23449;SDS011;11897;45.438;12.128;2023-03-23T08:45:36;15.27;;;9.13;;
23449;SDS011;11897;45.438;12.128;2023-03-23T08:48:26;17.90;;;9.03;;
23449;SDS011;11897;45.438;12.128;2023-03-23T08:51:11;15.53;;;8.47;;
23449;SDS011;11897;45.438;12.128;2023-03-23T08:53:58;13.40;;;8.00;;
23449;SDS011;11897;45.438;12.128;2023-03-23T08:56:47;19.00;;;9.20;;
23449;SDS011;11897;45.438;12.128;2023-03-23T08:59:37;13.93;;;8.40;;
23449;SDS011;11897;45.438;12.128;2023-03-23T09:02:15;14.50;;;7.77;;
23449;SDS011;11897;45.438;12.128;2023-03-23T09:04:57;13.67;;;8.03;;
23449;SDS011;11897;45.438;12.128;2023-03-23T09:07:55;17.73;;;7.50;;
23449;SDS011;11897;45.438;12.128;2023-03-23T09:10:26;14.60;;;7.87;;
23449;SDS011;11897;45.438;12.128;2023-03-23T09:12:53;14.80;;;8.07;;
23449;SDS011;11897;45.438;12.128;2023-03-23T09:15:21;13.13;;;7.33;;
23449;SDS011;11897;45.438;12.128;2023-03-23T09:17:49;17.83;;;8.17;;
23449;SDS011;11897;45.438;12.128;2023-03-23T09:20:17;14.60;;;7.80;;
23449;SDS011;11897;45.438;12.128;2023-03-23T09:22:46;13.30;;;6.97;;
23449;SDS011;11897;45.438;12.128;2023-03-23T09:25:13;14.23;;;7.30;;
23449;SDS011;11897;45.438;12.128;2023-03-23T09:27:42;16.93;;;7.73;;
23449;SDS011;11897;45.438;12.128;2023-03-23T09:30:10;17.87;;;8.17;;
23449;SDS011;11897;45.438;12.128;2023-03-23T09:32:38;12.17;;;6.53;;
23449;SDS011;11897;45.438;12.128;2023-03-23T09:35:06;11.10;;;6.57;;
23449;SDS011;11897;45.438;12.128;2023-03-23T09:37:33;12.40;;;5.87;;
23449;SDS011;11897;45.438;12.128;2023-03-23T09:40:00;10.23;;;6.60;;
23449;SDS011;11897;45.438;12.128;2023-03-23T09:42:35;11.80;;;6.33;;
23449;SDS011;11897;45.438;12.128;2023-03-23T09:45:09;9.50;;;6.10;;
23449;SDS011;11897;45.438;12.128;2023-03-23T09:48:00;10.18;;;6.43;;
23449;SDS011;11897;45.438;12.128;2023-03-23T09:50:29;10.90;;;6.33;;
23449;SDS011;11897;45.438;12.128;2023-03-23T09:52:58;13.00;;;7.30;;
23449;SDS011;11897;45.438;12.128;2023-03-23T09:55:26;13.00;;;5.77;;
23449;SDS011;11897;45.438;12.128;2023-03-23T09:57:54;12.27;;;6.53;;
23449;SDS011;11897;45.438;12.128;2023-03-23T10:00:24;10.93;;;5.65;;
23449;SDS011;11897;45.438;12.128;2023-03-23T10:02:55;11.73;;;5.47;;
23449;SDS011;11897;45.438;12.128;2023-03-23T10:05:26;12.00;;;5.68;;
23449;SDS011;11897;45.438;12.128;2023-03-23T10:07:55;7.63;;;3.83;;
23449;SDS011;11897;45.438;12.128;2023-03-23T10:10:22;10.70;;;4.20;;
23449;SDS011;11897;45.438;12.128;2023-03-23T10:12:53;6.95;;;4.10;;
23449;SDS011;11897;45.438;12.128;2023-03-23T10:15:25;6.80;;;4.63;;
23449;SDS011;11897;45.438;12.128;2023-03-23T10:17:54;6.40;;;4.60;;
23449;SDS011;11897;45.438;12.128;2023-03-23T10:20:32;6.80;;;4.60;;
23449;SDS011;11897;45.438;12.128;2023-03-23T10:23:01;9.33;;;4.63;;
23449;SDS011;11897;45.438;12.128;2023-03-23T10:25:29;7.23;;;4.70;;
23449;SDS011;11897;45.438;12.128;2023-03-23T10:27:58;6.97;;;4.17;;
23449;SDS011;11897;45.438;12.128;2023-03-23T10:30:29;9.60;;;4.97;;
23449;SDS011;11897;45.438;12.128;2023-03-23T10:32:58;5.78;;;3.78;;
23449;SDS011;11897;45.438;12.128;2023-03-23T10:35:25;8.88;;;4.82;;
23449;SDS011;11897;45.438;12.128;2023-03-23T10:37:56;8.87;;;4.57;;
23449;SDS011;11897;45.438;12.128;2023-03-23T10:40:28;7.55;;;4.18;;
23449;SDS011;11897;45.438;12.128;2023-03-23T10:42:56;7.72;;;4.75;;
23449;SDS011;11897;45.438;12.128;2023-03-23T10:45:24;8.43;;;4.93;;
23449;SDS011;11897;45.438;12.128;2023-03-23T10:48:11;11.77;;;6.17;;
23449;SDS011;11897;45.438;12.128;2023-03-23T10:50:40;12.40;;;5.43;;
23449;SDS011;11897;45.438;12.128;2023-03-23T10:53:12;8.90;;;5.03;;
23449;SDS011;11897;45.438;12.128;2023-03-23T10:55:42;11.88;;;5.20;;
23449;SDS011;11897;45.438;12.128;2023-03-23T10:58:10;12.25;;;5.78;;
23449;SDS011;11897;45.438;12.128;2023-03-23T11:00:40;10.93;;;5.73;;
23449;SDS011;11897;45.438;12.128;2023-03-23T11:03:20;10.10;;;5.43;;
23449;SDS011;11897;45.438;12.128;2023-03-23T11:05:49;9.95;;;5.32;;
23449;SDS011;11897;45.438;12.128;2023-03-23T11:08:17;13.48;;;5.97;;
23449;SDS011;11897;45.438;12.128;2023-03-23T11:10:48;9.25;;;5.65;;
23449;SDS011;11897;45.438;12.128;2023-03-23T11:13:16;11.05;;;5.60;;
23449;SDS011;11897;45.438;12.128;2023-03-23T11:15:44;8.27;;;5.05;;
23449;SDS011;11897;45.438;12.128;2023-03-23T11:18:19;9.10;;;5.40;;
23449;SDS011;11897;45.438;12.128;2023-03-23T11:20:49;8.32;;;5.13;;
23449;SDS011;11897;45.438;12.128;2023-03-23T11:23:21;9.98;;;6.32;;
23449;SDS011;11897;45.438;12.128;2023-03-23T11:26:08;10.93;;;7.05;;
23449;SDS011;11897;45.438;12.128;2023-03-23T11:28:36;9.95;;;5.85;;
23449;SDS011;11897;45.438;12.128;2023-03-23T11:31:03;7.50;;;5.25;;
23449;SDS011;11897;45.438;12.128;2023-03-23T11:33:36;12.00;;;6.05;;
23449;SDS011;11897;45.438;12.128;2023-03-23T11:36:05;9.50;;;6.28;;
23449;SDS011;11897;45.438;12.128;2023-03-23T11:38:32;10.63;;;6.38;;
23449;SDS011;11897;45.438;12.128;2023-03-23T11:40:59;8.43;;;5.95;;
23449;SDS011;11897;45.438;12.128;2023-03-23T11:43:26;10.10;;;6.35;;
23449;SDS011;11897;45.438;12.128;2023-03-23T11:45:58;9.15;;;5.20;;
23449;SDS011;11897;45.438;12.128;2023-03-23T11:48:29;11.23;;;6.53;;
23449;SDS011;11897;45.438;12.128;2023-03-23T11:51:02;12.18;;;6.32;;
23449;SDS011;11897;45.438;12.128;2023-03-23T11:53:34;10.18;;;6.53;;
23449;SDS011;11897;45.438;12.128;2023-03-23T11:56:08;9.85;;;5.53;;
23449;SDS011;11897;45.438;12.128;2023-03-23T11:58:37;8.10;;;5.32;;
23449;SDS011;11897;45.438;12.128;2023-03-23T12:01:05;9.70;;;5.65;;
23449;SDS011;11897;45.438;12.128;2023-03-23T12:03:39;6.57;;;5.18;;
23449;SDS011;11897;45.438;12.128;2023-03-23T12:06:10;9.52;;;4.38;;
23449;SDS011;11897;45.438;12.128;2023-03-23T12:08:49;9.07;;;5.10;;
23449;SDS011;11897;45.438;12.128;2023-03-23T12:11:20;7.15;;;4.60;;
23449;SDS011;11897;45.438;12.128;2023-03-23T12:13:54;10.77;;;5.13;;
23449;SDS011;11897;45.438;12.128;2023-03-23T12:16:29;8.52;;;5.05;;
23449;SDS011;11897;45.438;12.128;2023-03-23T12:18:58;6.45;;;4.15;;
23449;SDS011;11897;45.438;12.128;2023-03-23T12:21:32;13.35;;;3.97;;
23449;SDS011;11897;45.438;12.128;2023-03-23T12:24:04;4.25;;;3.35;;
23449;SDS011;11897;45.438;12.128;2023-03-23T12:26:33;5.22;;;3.30;;
23449;SDS011;11897;45.438;12.128;2023-03-23T12:29:15;10.10;;;3.97;;
23449;SDS011;11897;45.438;12.128;2023-03-23T12:31:46;8.85;;;4.15;;
23449;SDS011;11897;45.438;12.128;2023-03-23T12:34:18;6.97;;;3.83;;
23449;SDS011;11897;45.438;12.128;2023-03-23T12:36:52;9.93;;;4.13;;
23449;SDS011;11897;45.438;12.128;2023-03-23T12:39:33;7.53;;;4.45;;
23449;SDS011;11897;45.438;12.128;2023-03-23T12:42:07;7.13;;;4.57;;
23449;SDS011;11897;45.438;12.128;2023-03-23T12:44:39;5.35;;;3.95;;
23449;SDS011;11897;45.438;12.128;2023-03-23T12:47:11;5.38;;;3.33;;
23449;SDS011;11897;45.438;12.128;2023-03-23T12:49:45;6.00;;;3.95;;
23449;SDS011;11897;45.438;12.128;2023-03-23T12:52:16;7.13;;;4.10;;
23449;SDS011;11897;45.438;12.128;2023-03-23T12:54:47;6.35;;;3.97;;
23449;SDS011;11897;45.438;12.128;2023-03-23T12:57:20;8.35;;;4.00;;
23449;SDS011;11897;45.438;12.128;2023-03-23T12:59:50;7.80;;;4.03;;
23449;SDS011;11897;45.438;12.128;2023-03-23T13:02:20;6.18;;;4.38;;
23449;SDS011;11897;45.438;12.128;2023-03-23T13:04:51;6.82;;;4.85;;
23449;SDS011;11897;45.438;12.128;2023-03-23T13:07:21;4.95;;;3.78;;
23449;SDS011;11897;45.438;12.128;2023-03-23T13:09:50;6.22;;;3.72;;
23449;SDS011;11897;45.438;12.128;2023-03-23T13:12:19;6.07;;;4.10;;
23449;SDS011;11897;45.438;12.128;2023-03-23T13:14:50;5.00;;;3.80;;
23449;SDS011;11897;45.438;12.128;2023-03-23T13:17:21;8.85;;;4.32;;
23449;SDS011;11897;45.438;12.128;2023-03-23T13:20:01;6.90;;;4.22;;
23449;SDS011;11897;45.438;12.128;2023-03-23T13:22:36;6.15;;;4.03;;
23449;SDS011;11897;45.438;12.128;2023-03-23T13:25:06;5.78;;;4.47;;
23449;SDS011;11897;45.438;12.128;2023-03-23T13:27:34;6.53;;;4.05;;
23449;SDS011;11897;45.438;12.128;2023-03-23T13:30:01;5.97;;;4.97;;
23449;SDS011;11897;45.438;12.128;2023-03-23T13:32:31;8.52;;;4.15;;
23449;SDS011;11897;45.438;12.128;2023-03-23T13:35:00;6.57;;;3.83;;
23449;SDS011;11897;45.438;12.128;2023-03-23T13:37:27;6.93;;;4.00;;
23449;SDS011;11897;45.438;12.128;2023-03-23T13:39:56;10.00;;;4.68;;
23449;SDS011;11897;45.438;12.128;2023-03-23T13:42:24;5.93;;;4.35;;
23449;SDS011;11897;45.438;12.128;2023-03-23T13:44:56;12.35;;;5.15;;
23449;SDS011;11897;45.438;12.128;2023-03-23T13:47:26;8.70;;;4.90;;
23449;SDS011;11897;45.438;12.128;2023-03-23T13:49:56;7.25;;;4.18;;
23449;SDS011;11897;45.438;12.128;2023-03-23T13:52:24;7.75;;;5.25;;
23449;SDS011;11897;45.438;12.128;2023-03-23T13:54:52;5.90;;;4.15;;
23449;SDS011;11897;45.438;12.128;2023-03-23T13:57:36;7.63;;;5.03;;
23449;SDS011;11897;45.438;12.128;2023-03-23T14:00:27;9.05;;;5.05;;
23449;SDS011;11897;45.438;12.128;2023-03-23T14:03:05;7.80;;;5.03;;
23449;SDS011;11897;45.438;12.128;2023-03-23T14:05:37;11.27;;;5.75;;
23449;SDS011;11897;45.438;12.128;2023-03-23T14:08:12;8.82;;;5.35;;
23449;SDS011;11897;45.438;12.128;2023-03-23T14:10:41;10.40;;;5.55;;
23449;SDS011;11897;45.438;12.128;2023-03-23T14:13:16;7.63;;;5.68;;
23449;SDS011;11897;45.438;12.128;2023-03-23T14:15:45;8.13;;;5.78;;
23449;SDS011;11897;45.438;12.128;2023-03-23T14:18:23;6.35;;;4.82;;
23449;SDS011;11897;45.438;12.128;2023-03-23T14:20:52;8.40;;;5.50;;
23449;SDS011;11897;45.438;12.128;2023-03-23T14:23:19;8.95;;;5.78;;
23449;SDS011;11897;45.438;12.128;2023-03-23T14:25:54;10.35;;;5.72;;
23449;SDS011;11897;45.438;12.128;2023-03-23T14:28:22;11.07;;;6.78;;
23449;SDS011;11897;45.438;12.128;2023-03-23T14:30:52;9.50;;;5.47;;
23449;SDS011;11897;45.438;12.128;2023-03-23T14:33:19;10.40;;;5.50;;
23449;SDS011;11897;45.438;12.128;2023-03-23T14:35:46;8.27;;;4.75;;
23449;SDS011;11897;45.438;12.128;2023-03-23T14:38:15;9.93;;;5.57;;
23449;SDS011;11897;45.438;12.128;2023-03-23T14:40:43;9.75;;;5.60;;
23449;SDS011;11897;45.438;12.128;2023-03-23T14:43:10;9.90;;;5.32;;
23449;SDS011;11897;45.438;12.128;2023-03-23T14:45:41;7.88;;;5.20;;
23449;SDS011;11897;45.438;12.128;2023-03-23T14:48:08;9.27;;;5.78;;
23449;SDS011;11897;45.438;12.128;2023-03-23T14:50:38;9.73;;;5.28;;
23449;SDS011;11897;45.438;12.128;2023-03-23T14:53:10;11.07;;;5.23;;
23449;SDS011;11897;45.438;12.128;2023-03-23T14:55:37;8.07;;;5.40;;
23449;SDS011;11897;45.438;12.128;2023-03-23T14:58:07;6.82;;;4.97;;
23449;SDS011;11897;45.438;12.128;2023-03-23T15:00:35;9.35;;;5.57;;
23449;SDS011;11897;45.438;12.128;2023-03-23T15:03:04;9.52;;;5.75;;
23449;SDS011;11897;45.438;12.128;2023-03-23T15:05:33;6.30;;;4.70;;